Time;durP1;ratioP1;P1;durP2;ratioP2;P2;SDS_P1;SDS_P2;PMS_P1;PMS_P2;Temp;Humidity;BMP_temperature;BMP_pressure;BME280_temperature;BME280_humidity;BME280_pressure;Samples;Min_cycle;Max_cycle;Signal;HPM_P1;HPM_P2
2023/12/07 00:02:05;;;;;;;122.50;75.28;;;3.20;99.90;;;;;;4991983;28;20043;-73
2023/12/07 00:04:31;;;;;;;125.60;75.40;;;3.10;99.90;;;;;;4991459;28;20037;-73
2023/12/07 00:06:56;;;;;;;126.95;74.00;;;3.10;99.90;;;;;;4991823;28;20023;-74
2023/12/07 00:09:22;;;;;;;123.28;71.63;;;3.10;99.90;;;;;;4992292;28;20037;-74
2023/12/07 00:11:47;;;;;;;113.28;71.55;;;3.10;99.90;;;;;;4991976;28;20030;-74
2023/12/07 00:14:13;;;;;;;111.63;70.47;;;3.00;99.90;;;;;;4990774;28;20026;-74
2023/12/07 00:16:39;;;;;;;110.72;70.30;;;3.00;99.90;;;;;;4991996;28;20080;-74
2023/12/07 00:19:04;;;;;;;110.85;68.45;;;3.00;99.90;;;;;;4983995;28;20034;-75
2023/12/07 00:21:30;;;;;;;111.55;72.70;;;3.00;99.90;;;;;;4990974;28;20044;-74
2023/12/07 00:23:55;;;;;;;111.35;69.53;;;3.00;99.90;;;;;;4990119;28;20200;-74
2023/12/07 00:26:21;;;;;;;111.68;71.30;;;3.00;99.90;;;;;;4992186;28;20041;-75
2023/12/07 00:28:46;;;;;;;114.45;72.45;;;3.10;99.90;;;;;;5000391;28;20037;-74
2023/12/07 00:31:12;;;;;;;119.97;73.00;;;3.10;99.90;;;;;;5012294;28;20030;-74
2023/12/07 00:33:38;;;;;;;104.72;69.13;;;3.10;99.90;;;;;;5002252;28;20025;-74
2023/12/07 00:36:04;;;;;;;110.15;70.88;;;3.10;99.90;;;;;;4992382;28;20030;-75
2023/12/07 00:38:32;;;;;;;108.55;71.10;;;3.10;99.90;;;;;;4990868;28;20093;-74
2023/12/07 00:40:59;;;;;;;114.30;75.43;;;3.10;99.90;;;;;;4991947;28;20092;-75
2023/12/07 00:43:25;;;;;;;114.03;72.82;;;3.10;99.90;;;;;;4989506;28;20038;-74
2023/12/07 00:45:51;;;;;;;111.55;71.50;;;3.10;99.90;;;;;;4992677;28;20030;-74
2023/12/07 00:48:16;;;;;;;387.33;270.38;;;3.00;99.90;;;;;;4990746;28;20050;-74
2023/12/07 00:50:42;;;;;;;205.30;154.55;;;3.00;99.90;;;;;;4992891;28;20030;-74
2023/12/07 00:53:08;;;;;;;131.32;91.88;;;3.00;99.90;;;;;;4992531;28;20030;-74
2023/12/07 00:55:34;;;;;;;136.02;90.05;;;3.00;99.90;;;;;;4989891;28;20022;-74
2023/12/07 00:58:01;;;;;;;147.27;98.38;;;3.00;99.90;;;;;;4993029;28;20100;-73
2023/12/07 01:00:27;;;;;;;124.22;81.47;;;2.90;99.90;;;;;;4992989;28;20038;-73
2023/12/07 01:02:53;;;;;;;132.68;84.80;;;2.90;99.90;;;;;;4986622;28;20105;-73
2023/12/07 01:05:18;;;;;;;120.40;77.70;;;2.90;99.90;;;;;;4986872;28;20394;-74
2023/12/07 01:07:44;;;;;;;126.40;87.55;;;3.00;99.90;;;;;;4988874;28;20101;-74
2023/12/07 01:10:10;;;;;;;114.00;76.80;;;3.00;99.90;;;;;;4993040;28;20062;-74
2023/12/07 01:12:35;;;;;;;115.35;76.07;;;3.00;99.90;;;;;;4991121;28;20038;-74
2023/12/07 01:15:02;;;;;;;118.10;77.43;;;3.00;99.90;;;;;;4990910;28;20053;-74
2023/12/07 01:17:28;;;;;;;126.72;79.30;;;3.00;99.90;;;;;;4990175;28;20081;-74
2023/12/07 01:19:54;;;;;;;115.72;76.50;;;2.90;99.90;;;;;;4992420;28;20042;-73
2023/12/07 01:22:20;;;;;;;114.43;69.70;;;2.90;99.90;;;;;;4992234;28;20027;-74
2023/12/07 01:24:46;;;;;;;101.50;66.63;;;2.90;99.90;;;;;;4993109;28;20030;-73
2023/12/07 01:27:11;;;;;;;101.85;63.83;;;3.00;99.90;;;;;;4996144;28;20031;-73
2023/12/07 01:29:37;;;;;;;111.03;66.10;;;3.00;99.90;;;;;;4978094;28;20034;-74
2023/12/07 01:32:03;;;;;;;100.88;62.03;;;3.00;99.90;;;;;;4985922;28;20031;-76
2023/12/07 01:34:28;;;;;;;99.60;63.40;;;3.00;99.90;;;;;;4994416;28;20117;-74
2023/12/07 01:36:54;;;;;;;92.47;60.78;;;3.00;99.90;;;;;;4995904;28;20049;-73
2023/12/07 01:39:19;;;;;;;81.47;52.05;;;3.00;99.90;;;;;;4996207;28;20497;-73
2023/12/07 01:41:45;;;;;;;92.30;59.97;;;2.90;99.90;;;;;;4980219;28;20505;-74
2023/12/07 01:44:10;;;;;;;86.20;54.85;;;2.90;99.90;;;;;;4976844;28;20399;-74
2023/12/07 01:46:36;;;;;;;72.70;48.95;;;2.90;99.90;;;;;;4976494;28;20035;-74
2023/12/07 01:49:02;;;;;;;69.35;44.58;;;2.90;99.90;;;;;;4976789;28;20039;-75
2023/12/07 01:51:28;;;;;;;65.03;43.05;;;2.90;99.90;;;;;;4980547;28;20038;-76
2023/12/07 01:53:54;;;;;;;49.97;33.15;;;2.90;99.90;;;;;;4987568;28;20026;-75
2023/12/07 01:56:20;;;;;;;62.88;41.28;;;2.90;99.90;;;;;;4994878;28;20058;-75
2023/12/07 01:58:46;;;;;;;53.83;37.97;;;2.90;99.90;;;;;;4995352;28;20022;-75
2023/12/07 02:01:12;;;;;;;73.30;48.47;;;3.00;99.90;;;;;;4996354;28;20038;-75
2023/12/07 02:03:41;;;;;;;54.25;36.63;;;3.00;99.90;;;;;;4995404;28;20069;-75
2023/12/07 02:06:08;;;;;;;51.42;34.25;;;3.00;99.90;;;;;;4996812;28;20064;-75
2023/12/07 02:08:34;;;;;;;41.40;30.23;;;3.00;99.90;;;;;;4994165;28;20114;-75
2023/12/07 02:11:00;;;;;;;48.35;31.85;;;3.10;99.90;;;;;;4985332;28;20027;-75
2023/12/07 02:13:26;;;;;;;40.28;29.17;;;3.10;99.90;;;;;;4995673;28;20031;-75
2023/12/07 02:15:55;;;;;;;47.35;30.95;;;3.20;99.90;;;;;;4976994;28;20027;-74
2023/12/07 02:18:41;;;;;;;43.42;30.10;;;3.20;99.90;;;;;;4976836;28;20114;-75
2023/12/07 02:21:10;;;;;;;39.78;27.67;;;3.20;99.90;;;;;;4976933;28;20054;-76
2023/12/07 02:23:37;;;;;;;39.78;27.90;;;3.20;99.90;;;;;;4976755;28;20030;-75
2023/12/07 02:26:04;;;;;;;38.80;26.58;;;3.30;99.90;;;;;;4977367;28;20064;-76
2023/12/07 02:28:29;;;;;;;39.47;26.13;;;3.30;99.90;;;;;;4993871;28;20034;-75
2023/12/07 02:30:55;;;;;;;34.58;22.48;;;3.30;99.90;;;;;;4995222;28;20018;-75
2023/12/07 02:33:21;;;;;;;29.60;20.23;;;3.30;99.90;;;;;;4994775;28;20035;-76
2023/12/07 02:35:46;;;;;;;29.52;20.38;;;3.30;99.90;;;;;;4992007;28;20401;-75
2023/12/07 02:38:12;;;;;;;34.13;21.52;;;3.30;99.90;;;;;;4994229;28;20060;-75
2023/12/07 02:40:40;;;;;;;29.15;19.58;;;3.30;99.90;;;;;;4995792;28;20042;-76
2023/12/07 02:43:07;;;;;;;28.30;18.92;;;3.30;99.90;;;;;;4995488;28;20378;-75
2023/12/07 02:45:33;;;;;;;28.73;18.85;;;3.30;99.90;;;;;;4994367;28;20045;-76
2023/12/07 02:47:59;;;;;;;26.20;18.38;;;3.20;99.90;;;;;;4985499;28;20077;-75
2023/12/07 02:50:25;;;;;;;29.02;18.65;;;3.20;99.90;;;;;;4995263;28;20023;-75
2023/12/07 02:52:50;;;;;;;25.60;17.15;;;3.30;99.90;;;;;;4995915;28;20058;-76
2023/12/07 02:55:16;;;;;;;29.73;19.63;;;3.20;99.90;;;;;;4995260;28;20466;-76
2023/12/07 02:57:41;;;;;;;29.85;20.17;;;3.20;99.90;;;;;;4980868;28;20583;-76
2023/12/07 03:00:07;;;;;;;33.03;21.65;;;3.20;99.90;;;;;;4979014;28;20046;-76
2023/12/07 03:02:38;;;;;;;37.75;26.42;;;3.30;99.90;;;;;;4991184;28;20109;-76
2023/12/07 03:05:04;;;;;;;45.28;29.33;;;3.30;99.90;;;;;;4979182;28;20026;-76
2023/12/07 03:07:30;;;;;;;40.75;27.83;;;3.30;99.90;;;;;;4992897;28;20505;-76
2023/12/07 03:09:55;;;;;;;41.63;28.33;;;3.30;99.90;;;;;;4994521;28;20034;-76
2023/12/07 03:12:22;;;;;;;42.35;27.85;;;3.30;99.90;;;;;;4995250;28;20053;-76
2023/12/07 03:14:48;;;;;;;31.70;21.42;;;3.40;99.90;;;;;;4983072;28;20467;-76
2023/12/07 03:17:14;;;;;;;35.80;24.42;;;3.40;99.90;;;;;;5007530;28;20037;-76
2023/12/07 03:19:40;;;;;;;29.33;18.90;;;3.50;99.90;;;;;;4991024;28;20031;-75
2023/12/07 03:22:06;;;;;;;25.77;16.25;;;3.50;99.90;;;;;;4987176;28;20378;-76
2023/12/07 03:24:33;;;;;;;23.60;16.63;;;3.50;99.90;;;;;;4994802;28;20019;-76
2023/12/07 03:26:59;;;;;;;26.42;17.08;;;3.40;99.90;;;;;;4995232;28;20027;-76
2023/12/07 03:29:24;;;;;;;26.80;16.35;;;3.40;99.90;;;;;;4990427;28;20050;-75
2023/12/07 03:31:50;;;;;;;24.15;16.20;;;3.30;99.90;;;;;;4993199;28;20034;-75
2023/12/07 03:34:16;;;;;;;24.67;16.23;;;3.30;99.90;;;;;;4994414;28;20438;-76
2023/12/07 03:36:46;;;;;;;25.17;16.90;;;3.20;99.90;;;;;;4994497;28;20026;-76
2023/12/07 03:39:11;;;;;;;26.92;17.38;;;3.20;99.90;;;;;;4992033;28;20022;-76
2023/12/07 03:41:37;;;;;;;28.88;17.52;;;3.20;99.90;;;;;;4990628;28;20054;-76
2023/12/07 03:44:02;;;;;;;28.08;18.08;;;3.20;99.90;;;;;;4994364;28;20069;-75
2023/12/07 03:46:28;;;;;;;26.38;18.45;;;3.20;99.90;;;;;;4994495;28;20030;-76
2023/12/07 03:48:53;;;;;;;26.27;17.80;;;3.20;99.90;;;;;;4991866;28;20035;-76
2023/12/07 03:51:19;;;;;;;26.17;16.85;;;3.20;99.90;;;;;;4994081;28;20022;-76
2023/12/07 03:53:44;;;;;;;30.88;18.38;;;3.10;99.90;;;;;;4993113;28;20541;-75
2023/12/07 03:56:10;;;;;;;30.25;18.60;;;3.10;99.90;;;;;;4991972;28;20030;-76
2023/12/07 03:58:36;;;;;;;28.70;18.67;;;3.20;99.90;;;;;;4994244;28;20050;-76
2023/12/07 04:01:01;;;;;;;27.45;19.25;;;3.10;99.90;;;;;;4992255;28;20045;-76
2023/12/07 04:03:27;;;;;;;184.85;50.75;;;3.10;99.90;;;;;;4992166;28;20026;-76
2023/12/07 04:05:53;;;;;;;30.90;20.77;;;3.10;99.90;;;;;;4992670;28;20030;-75
2023/12/07 04:08:18;;;;;;;30.80;19.98;;;3.10;99.90;;;;;;4993058;28;20046;-75
2023/12/07 04:10:44;;;;;;;33.90;20.13;;;3.10;99.90;;;;;;4991308;28;20033;-75
2023/12/07 04:13:09;;;;;;;33.97;20.33;;;3.10;99.90;;;;;;4992740;28;20041;-75
2023/12/07 04:15:35;;;;;;;60.33;24.42;;;3.10;99.90;;;;;;4993917;28;20026;-76
2023/12/07 04:18:00;;;;;;;30.50;21.75;;;3.10;99.90;;;;;;4992635;28;20494;-76
2023/12/07 04:20:26;;;;;;;32.75;21.15;;;3.10;99.90;;;;;;4989332;28;20487;-76
2023/12/07 04:22:52;;;;;;;34.72;22.77;;;3.10;99.90;;;;;;4991652;28;20474;-76
2023/12/07 04:25:18;;;;;;;47.10;23.10;;;3.10;99.90;;;;;;4993755;28;20022;-76
2023/12/07 04:27:43;;;;;;;34.10;22.65;;;3.00;99.90;;;;;;4991089;28;20144;-76
2023/12/07 04:30:09;;;;;;;30.80;20.88;;;3.00;99.90;;;;;;4992203;28;20120;-76
2023/12/07 04:32:35;;;;;;;32.40;22.02;;;3.00;99.90;;;;;;4993387;28;20038;-76
2023/12/07 04:35:01;;;;;;;32.00;21.85;;;3.00;99.90;;;;;;4993835;28;20034;-76
2023/12/07 04:37:26;;;;;;;31.60;21.30;;;3.00;99.90;;;;;;4993216;28;20022;-77
2023/12/07 04:39:52;;;;;;;86.65;26.48;;;3.00;99.90;;;;;;4993485;28;20062;-76
2023/12/07 04:42:17;;;;;;;33.92;23.02;;;3.00;99.90;;;;;;4990615;28;20053;-76
2023/12/07 04:44:43;;;;;;;33.38;22.88;;;3.00;99.90;;;;;;4992280;28;20026;-76
2023/12/07 04:47:09;;;;;;;31.90;23.10;;;2.90;99.90;;;;;;4992631;28;20030;-76
2023/12/07 04:49:34;;;;;;;34.92;23.38;;;2.90;99.90;;;;;;4994117;28;20042;-77
2023/12/07 04:52:00;;;;;;;32.88;23.73;;;2.90;99.90;;;;;;4993525;28;20018;-76
2023/12/07 04:54:27;;;;;;;37.08;23.98;;;2.80;99.90;;;;;;4992485;28;20023;-77
2023/12/07 04:56:53;;;;;;;34.00;23.92;;;2.80;99.90;;;;;;4991491;28;20113;-77
2023/12/07 04:59:18;;;;;;;34.97;23.38;;;2.80;99.90;;;;;;4991718;28;20466;-76
2023/12/07 05:01:44;;;;;;;37.70;24.15;;;2.80;99.90;;;;;;4996236;28;20556;-76
2023/12/07 05:04:09;;;;;;;35.83;24.45;;;2.80;99.90;;;;;;4997901;28;20493;-76
2023/12/07 05:06:35;;;;;;;41.88;24.70;;;2.80;99.90;;;;;;4994623;28;20030;-76
2023/12/07 05:09:02;;;;;;;33.78;23.75;;;2.70;99.90;;;;;;4993256;28;20106;-76
2023/12/07 05:11:28;;;;;;;35.45;23.98;;;2.70;99.90;;;;;;5005935;28;20030;-76
2023/12/07 05:13:53;;;;;;;35.63;24.42;;;2.70;99.90;;;;;;5017028;28;20088;-76
2023/12/07 05:16:19;;;;;;;35.05;23.92;;;2.70;99.90;;;;;;5017356;28;20065;-76
2023/12/07 05:18:44;;;;;;;38.10;26.45;;;2.70;99.90;;;;;;4989923;28;20033;-76
2023/12/07 05:21:10;;;;;;;46.88;27.30;;;2.70;99.90;;;;;;4994750;28;20045;-76
2023/12/07 05:23:35;;;;;;;39.53;26.13;;;2.70;99.90;;;;;;4997164;28;20030;-76
2023/12/07 05:26:01;;;;;;;38.30;26.60;;;2.70;99.90;;;;;;4997662;28;20026;-77
2023/12/07 05:28:26;;;;;;;38.63;25.75;;;2.70;99.90;;;;;;4997618;28;20038;-78
2023/12/07 05:30:52;;;;;;;37.95;24.65;;;2.70;99.90;;;;;;4992900;28;20034;-77
2023/12/07 05:33:24;;;;;;;58.83;26.85;;;2.70;99.90;;;;;;4997118;28;20466;-80
2023/12/07 05:35:50;;;;;;;39.60;25.50;;;2.80;99.90;;;;;;4995564;28;20023;-76
2023/12/07 05:38:15;;;;;;;38.83;25.90;;;2.70;99.90;;;;;;4996665;28;20103;-76
2023/12/07 05:40:41;;;;;;;40.95;26.02;;;2.70;99.90;;;;;;4996650;28;20084;-76
2023/12/07 05:43:07;;;;;;;37.67;25.88;;;2.70;99.90;;;;;;4996017;28;20038;-76
2023/12/07 05:45:33;;;;;;;42.70;29.85;;;2.70;99.90;;;;;;4996476;28;20486;-76
2023/12/07 05:47:59;;;;;;;39.30;27.38;;;2.80;99.90;;;;;;4995453;28;20030;-76
2023/12/07 05:50:24;;;;;;;277.60;47.83;;;2.80;99.90;;;;;;4985912;28;20113;-76
2023/12/07 05:52:50;;;;;;;36.55;26.27;;;2.80;99.90;;;;;;4996295;28;20110;-76
2023/12/07 05:55:15;;;;;;;71.22;28.02;;;2.80;99.90;;;;;;4996211;28;20041;-76
2023/12/07 05:57:41;;;;;;;38.13;25.13;;;2.80;99.90;;;;;;4996737;28;20050;-76
2023/12/07 06:00:09;;;;;;;36.58;25.52;;;2.80;99.90;;;;;;4996725;28;20039;-76
2023/12/07 06:02:35;;;;;;;48.95;35.15;;;2.80;99.90;;;;;;4996572;28;20397;-76
2023/12/07 06:05:03;;;;;;;240.38;51.83;;;2.80;99.90;;;;;;4995695;28;20038;-76
2023/12/07 06:07:29;;;;;;;35.40;25.88;;;2.80;99.90;;;;;;4995855;28;20041;-77
2023/12/07 06:09:55;;;;;;;40.83;26.27;;;2.80;99.90;;;;;;4983691;28;20030;-76
2023/12/07 06:12:21;;;;;;;39.55;26.80;;;2.70;99.90;;;;;;4996943;28;20022;-75
2023/12/07 06:14:47;;;;;;;67.72;31.83;;;2.70;99.90;;;;;;4996437;28;20026;-76
2023/12/07 06:17:13;;;;;;;43.35;27.98;;;2.70;99.90;;;;;;4996158;28;20030;-76
2023/12/07 06:19:39;;;;;;;43.38;29.02;;;2.80;99.90;;;;;;4994236;28;20041;-76
2023/12/07 06:22:05;;;;;;;42.70;29.10;;;2.70;99.90;;;;;;4996285;28;20026;-76
2023/12/07 06:24:32;;;;;;;107.78;36.13;;;2.70;99.90;;;;;;4995650;28;20056;-76
2023/12/07 06:26:58;;;;;;;49.90;31.95;;;2.70;99.90;;;;;;4992944;28;20030;-77
2023/12/07 06:29:23;;;;;;;54.35;34.67;;;2.70;99.90;;;;;;4986741;28;20081;-76
2023/12/07 06:31:49;;;;;;;124.97;41.90;;;2.70;99.90;;;;;;4992865;28;20034;-77
2023/12/07 06:34:16;;;;;;;117.63;42.47;;;2.70;99.90;;;;;;4996014;28;20466;-77
2023/12/07 06:36:41;;;;;;;67.90;34.92;;;2.70;99.90;;;;;;4994954;28;20027;-77
2023/12/07 06:39:07;;;;;;;67.13;34.88;;;2.60;99.90;;;;;;4994613;28;20177;-77
2023/12/07 06:41:33;;;;;;;239.00;52.65;;;2.70;99.90;;;;;;4994796;28;20038;-77
2023/12/07 06:43:58;;;;;;;86.75;36.40;;;2.70;99.90;;;;;;4976666;28;20058;-77
2023/12/07 06:46:24;;;;;;;329.48;65.35;;;2.70;99.90;;;;;;4976785;28;20105;-77
2023/12/07 06:48:50;;;;;;;326.95;66.15;;;2.70;99.90;;;;;;4979635;28;20463;-77
2023/12/07 06:51:15;;;;;;;870.85;140.88;;;2.70;99.90;;;;;;5000715;28;20023;-77
2023/12/07 06:53:41;;;;;;;338.83;62.45;;;2.70;99.90;;;;;;4979329;28;20169;-77
2023/12/07 06:56:08;;;;;;;681.80;114.05;;;2.70;99.90;;;;;;4994904;28;20493;-76
2023/12/07 06:58:33;;;;;;;303.73;55.15;;;2.70;99.90;;;;;;4995414;28;20022;-77
2023/12/07 07:00:59;;;;;;;431.27;69.97;;;2.70;99.90;;;;;;4994095;28;20030;-77
2023/12/07 07:03:27;;;;;;;347.90;52.38;;;2.70;99.90;;;;;;4993721;28;20030;-77
2023/12/07 07:05:54;;;;;;;344.20;54.33;;;2.70;99.90;;;;;;4992263;28;20035;-77
2023/12/07 07:08:19;;;;;;;283.23;46.33;;;2.70;99.90;;;;;;4994642;28;20044;-76
2023/12/07 07:10:46;;;;;;;328.73;52.00;;;2.70;99.90;;;;;;4995116;28;20386;-76
2023/12/07 07:13:14;;;;;;;212.57;41.45;;;2.70;99.90;;;;;;4995079;28;20084;-76
2023/12/07 07:15:42;;;;;;;349.33;53.53;;;2.70;99.90;;;;;;4993751;28;20062;-76
2023/12/07 07:18:08;;;;;;;161.10;39.67;;;2.70;99.90;;;;;;4993440;28;20037;-76
2023/12/07 07:20:33;;;;;;;167.95;39.15;;;2.60;99.90;;;;;;4994990;28;20041;-76
2023/12/07 07:22:59;;;;;;;241.98;52.03;;;2.60;99.90;;;;;;4994132;28;20034;-76
2023/12/07 07:25:25;;;;;;;155.77;37.33;;;2.60;99.90;;;;;;4994755;28;20022;-76
2023/12/07 07:27:50;;;;;;;151.10;37.20;;;2.50;99.90;;;;;;4984858;28;20038;-76
2023/12/07 07:30:16;;;;;;;107.78;30.55;;;2.50;99.90;;;;;;4990134;28;20038;-76
2023/12/07 07:32:41;;;;;;;130.32;36.83;;;2.50;99.90;;;;;;4992838;28;20030;-76
2023/12/07 07:35:07;;;;;;;128.95;36.92;;;2.50;99.90;;;;;;4993244;28;20030;-76
2023/12/07 07:37:33;;;;;;;70.03;30.52;;;2.40;99.90;;;;;;4993504;28;20524;-76
2023/12/07 07:39:59;;;;;;;148.68;36.58;;;2.40;99.90;;;;;;4987425;28;20459;-75
2023/12/07 07:42:25;;;;;;;251.93;47.90;;;2.40;99.90;;;;;;5007109;28;20049;-76
2023/12/07 07:44:50;;;;;;;985.95;203.80;;;2.40;99.90;;;;;;5002326;28;20064;-75
2023/12/07 07:47:16;;;;;;;112.57;36.42;;;2.30;99.90;;;;;;4994932;28;20066;-76
2023/12/07 07:49:42;;;;;;;120.57;37.00;;;2.30;99.90;;;;;;4989383;28;20065;-76
2023/12/07 07:52:08;;;;;;;185.30;43.53;;;2.30;99.90;;;;;;4989765;28;20069;-76
2023/12/07 07:54:34;;;;;;;160.70;38.45;;;2.30;99.90;;;;;;4980370;28;20433;-76
2023/12/07 07:56:59;;;;;;;259.15;49.33;;;2.30;99.90;;;;;;4991861;28;20197;-75
2023/12/07 07:59:25;;;;;;;222.77;48.60;;;2.20;99.90;;;;;;4989379;28;20088;-75
2023/12/07 08:01:50;;;;;;;144.50;42.28;;;2.20;99.90;;;;;;4988655;28;20402;-75
2023/12/07 08:04:16;;;;;;;196.40;46.72;;;2.20;99.90;;;;;;4985959;28;20489;-76
2023/12/07 08:06:42;;;;;;;107.10;38.60;;;2.20;99.90;;;;;;4991881;28;20041;-75
2023/12/07 08:09:10;;;;;;;122.47;39.35;;;2.20;99.90;;;;;;4981259;28;20393;-76
2023/12/07 08:11:36;;;;;;;131.38;38.25;;;2.20;99.90;;;;;;4992199;28;20049;-76
2023/12/07 08:14:01;;;;;;;248.85;49.80;;;2.20;99.90;;;;;;4991158;28;20386;-75
2023/12/07 08:16:27;;;;;;;218.18;44.42;;;2.20;99.90;;;;;;4990003;28;20479;-74
2023/12/07 08:18:53;;;;;;;109.18;33.42;;;2.10;99.90;;;;;;4991124;28;20022;-75
2023/12/07 08:21:23;;;;;;;97.00;30.33;;;2.10;99.90;;;;;;4990169;28;20042;-75
2023/12/07 08:23:49;;;;;;;107.65;35.22;;;2.10;99.90;;;;;;4990394;28;20022;-75
2023/12/07 08:26:15;;;;;;;95.57;30.88;;;2.00;99.90;;;;;;4990274;28;20068;-75
2023/12/07 08:28:41;;;;;;;233.60;48.30;;;2.00;99.90;;;;;;4989548;28;20026;-76
2023/12/07 08:31:07;;;;;;;203.35;41.45;;;2.10;99.90;;;;;;4989320;28;20026;-76
2023/12/07 08:33:35;;;;;;;257.13;44.90;;;2.20;99.90;;;;;;4988971;28;20434;-75
2023/12/07 08:36:02;;;;;;;97.90;30.70;;;2.20;99.90;;;;;;4990526;28;20026;-75
2023/12/07 08:38:28;;;;;;;128.82;33.10;;;2.20;99.90;;;;;;4991136;28;20116;-75
2023/12/07 08:40:53;;;;;;;150.30;36.17;;;2.30;99.90;;;;;;4989765;28;20439;-75
2023/12/07 08:43:24;;;;;;;411.05;71.00;;;2.40;99.90;;;;;;4988125;28;20117;-75
2023/12/07 08:45:51;;;;;;;145.33;36.20;;;2.40;99.90;;;;;;4987131;28;20023;-75
2023/12/07 08:48:18;;;;;;;95.15;30.13;;;2.40;99.90;;;;;;4990925;28;20295;-75
2023/12/07 08:50:43;;;;;;;140.98;32.63;;;2.40;99.90;;;;;;4991641;28;20429;-75
2023/12/07 08:53:09;;;;;;;235.85;46.10;;;2.40;99.90;;;;;;4991760;28;20026;-74
2023/12/07 08:55:34;;;;;;;406.67;63.83;;;2.40;99.90;;;;;;4991795;28;20026;-73
2023/12/07 08:58:00;;;;;;;133.70;30.10;;;2.40;99.90;;;;;;4992010;28;20050;-74
2023/12/07 09:00:26;;;;;;;183.73;37.70;;;2.40;99.90;;;;;;4991512;28;20042;-74
2023/12/07 09:02:52;;;;;;;114.60;28.90;;;2.40;99.90;;;;;;4993357;28;20101;-75
2023/12/07 09:05:18;;;;;;;97.25;26.02;;;2.50;99.90;;;;;;4992900;28;20066;-74
2023/12/07 09:07:43;;;;;;;300.33;46.70;;;2.60;99.90;;;;;;4987817;28;20019;-74
2023/12/07 09:10:10;;;;;;;49.92;22.92;;;2.60;99.90;;;;;;4991982;28;20038;-74
2023/12/07 09:12:37;;;;;;;61.30;23.38;;;2.60;99.90;;;;;;4992934;28;20477;-74
2023/12/07 09:15:03;;;;;;;105.28;24.08;;;2.70;99.90;;;;;;4991452;28;20023;-73
2023/12/07 09:17:29;;;;;;;75.97;20.63;;;2.70;99.90;;;;;;4985762;28;20030;-74
2023/12/07 09:19:55;;;;;;;66.20;20.73;;;2.60;99.90;;;;;;4990042;28;20515;-74
2023/12/07 09:22:21;;;;;;;94.38;22.17;;;2.60;99.90;;;;;;4989738;28;20086;-75
2023/12/07 09:24:46;;;;;;;99.75;22.17;;;2.50;99.90;;;;;;4991033;28;20475;-72
2023/12/07 09:27:13;;;;;;;162.40;30.75;;;2.50;99.90;;;;;;4990561;28;20205;-74
2023/12/07 09:29:39;;;;;;;82.60;22.90;;;2.50;99.90;;;;;;4989007;28;20027;-73
2023/12/07 09:32:06;;;;;;;91.57;21.67;;;2.50;99.90;;;;;;4991892;28;20033;-74
2023/12/07 09:34:31;;;;;;;162.07;29.00;;;2.60;99.90;;;;;;4992011;28;20758;-75
2023/12/07 09:37:08;;;;;;;81.88;21.75;;;2.60;99.90;;;;;;4992104;28;20127;-75
2023/12/07 09:40:35;;;;;;;90.88;21.80;;;2.70;99.90;;;;;;4988728;28;20045;-81
2023/12/07 09:43:09;;;;;;;72.72;20.73;;;2.60;99.90;;;;;;4989989;28;20030;-74
2023/12/07 09:45:34;;;;;;;149.27;28.67;;;2.60;99.90;;;;;;4991114;28;20081;-72
2023/12/07 09:48:00;;;;;;;99.72;21.92;;;2.70;99.90;;;;;;4994962;28;20030;-73
2023/12/07 09:50:30;;;;;;;67.82;19.85;;;2.70;99.90;;;;;;4993950;28;20034;-72
2023/12/07 09:52:57;;;;;;;67.97;22.75;;;2.70;99.90;;;;;;4996396;28;20168;-74
2023/12/07 09:55:23;;;;;;;183.93;33.22;;;2.60;99.90;;;;;;4996380;28;20109;-74
2023/12/07 09:57:56;;;;;;;327.83;41.47;;;2.70;99.90;;;;;;4989691;28;20383;-73
2023/12/07 10:00:22;;;;;;;63.97;20.58;;;2.60;99.90;;;;;;4994123;28;20042;-74
2023/12/07 10:02:48;;;;;;;56.63;20.38;;;2.70;99.90;;;;;;4995383;28;20053;-74
2023/12/07 10:05:16;;;;;;;752.85;98.85;;;2.80;99.90;;;;;;4991856;28;20112;-73
2023/12/07 10:07:48;;;;;;;144.93;26.75;;;2.90;99.90;;;;;;4983252;28;20063;-73
2023/12/07 10:10:16;;;;;;;60.35;20.40;;;2.90;99.90;;;;;;4996481;28;20088;-73
2023/12/07 10:12:51;;;;;;;241.52;37.38;;;3.00;99.90;;;;;;4995978;28;20109;-73
2023/12/07 10:15:17;;;;;;;408.52;57.47;;;3.00;99.90;;;;;;4995110;28;20390;-72
2023/12/07 10:17:48;;;;;;;122.53;26.20;;;3.00;99.90;;;;;;4996195;28;20026;-73
2023/12/07 10:20:18;;;;;;;77.20;17.95;;;2.90;99.90;;;;;;4995712;28;20037;-74
2023/12/07 10:23:09;;;;;;;66.28;18.13;;;2.90;99.90;;;;;;4994046;28;20050;-75
2023/12/07 10:25:37;;;;;;;102.63;23.00;;;2.90;99.90;;;;;;4989349;28;20042;-78
2023/12/07 10:28:06;;;;;;;225.63;31.75;;;2.90;99.90;;;;;;4995027;28;20031;-76
2023/12/07 10:30:35;;;;;;;72.90;18.83;;;2.90;99.90;;;;;;4995886;28;20042;-78
2023/12/07 10:33:04;;;;;;;49.35;16.20;;;2.80;99.90;;;;;;4994808;28;20034;-77
2023/12/07 10:35:29;;;;;;;119.22;23.88;;;2.70;99.90;;;;;;4994930;28;20026;-78
2023/12/07 10:37:55;;;;;;;53.80;18.95;;;2.80;99.90;;;;;;4994051;28;20026;-77
2023/12/07 10:40:20;;;;;;;62.53;17.90;;;2.80;99.90;;;;;;4994147;28;20422;-78
2023/12/07 10:42:48;;;;;;;57.20;17.08;;;2.80;99.90;;;;;;4995508;28;20034;-76
2023/12/07 10:45:15;;;;;;;91.60;21.13;;;2.80;99.90;;;;;;4995455;28;20026;-76
2023/12/07 10:47:43;;;;;;;53.72;17.13;;;2.80;99.90;;;;;;4992609;28;20030;-76
2023/12/07 10:50:13;;;;;;;79.65;21.75;;;2.90;99.90;;;;;;4994129;28;20030;-76
2023/12/07 10:52:50;;;;;;;346.75;53.63;;;2.90;99.90;;;;;;4991657;28;20402;-76
2023/12/07 10:55:28;;;;;;;193.20;31.60;;;2.90;99.90;;;;;;4991622;28;20033;-77
2023/12/07 10:57:55;;;;;;;219.80;37.00;;;2.90;99.90;;;;;;4988831;28;20034;-78
2023/12/07 11:00:36;;;;;;;79.85;21.35;;;2.90;99.90;;;;;;4990358;28;20046;-83
2023/12/07 11:03:03;;;;;;;53.03;20.25;;;2.90;99.90;;;;;;4989904;28;20022;-77
2023/12/07 11:05:30;;;;;;;51.75;19.10;;;3.00;99.90;;;;;;4994161;28;20437;-77
2023/12/07 11:08:26;;;;;;;112.25;24.85;;;3.10;99.90;;;;;;4999923;28;20054;-78
2023/12/07 11:11:15;;;;;;;52.47;18.40;;;3.20;99.90;;;;;;4992194;28;20093;-77
2023/12/07 11:13:49;;;;;;;40.80;19.45;;;3.20;99.90;;;;;;4991572;28;20134;-77
2023/12/07 11:16:15;;;;;;;48.58;19.40;;;3.30;99.90;;;;;;4993753;28;20037;-77
2023/12/07 11:18:41;;;;;;;91.15;21.73;;;3.30;99.90;;;;;;4993584;28;20034;-76
2023/12/07 11:21:07;;;;;;;60.22;19.10;;;3.30;99.90;;;;;;4994760;28;20061;-77
2023/12/07 11:23:33;;;;;;;75.13;22.35;;;3.30;99.90;;;;;;4993462;28;20110;-77
2023/12/07 11:25:58;;;;;;;54.22;19.30;;;3.20;99.90;;;;;;4992077;28;20130;-77
2023/12/07 11:28:43;;;;;;;122.53;25.55;;;3.30;99.90;;;;;;4992734;28;20030;-77
2023/12/07 11:31:09;;;;;;;52.55;20.52;;;3.20;99.90;;;;;;4994914;28;20034;-78
2023/12/07 11:33:39;;;;;;;52.67;19.30;;;3.20;99.90;;;;;;4993404;28;20030;-79
2023/12/07 11:36:12;;;;;;;47.20;19.00;;;3.10;99.90;;;;;;4991599;28;20054;-78
2023/12/07 11:38:58;;;;;;;69.65;21.65;;;3.10;99.90;;;;;;4991830;28;20030;-78
2023/12/07 11:41:24;;;;;;;68.72;20.17;;;3.10;99.90;;;;;;4991633;28;20541;-78
2023/12/07 11:43:53;;;;;;;60.63;20.00;;;3.10;99.90;;;;;;4989352;28;20113;-78
2023/12/07 11:46:19;;;;;;;58.20;20.25;;;3.20;99.90;;;;;;4991608;28;20034;-79
2023/12/07 11:48:48;;;;;;;62.38;21.25;;;3.20;99.90;;;;;;4992760;28;20470;-78
2023/12/07 11:51:16;;;;;;;62.78;21.48;;;3.20;99.90;;;;;;4992645;28;20134;-79
2023/12/07 11:53:41;;;;;;;61.03;21.02;;;3.10;99.90;;;;;;4991624;28;20035;-79
2023/12/07 11:56:09;;;;;;;77.90;22.40;;;3.10;99.90;;;;;;4993788;28;20027;-78
2023/12/07 11:58:36;;;;;;;87.28;23.63;;;3.20;99.90;;;;;;4990314;28;20058;-78
2023/12/07 12:01:02;;;;;;;70.88;23.17;;;3.20;99.90;;;;;;4993691;28;20042;-78
2023/12/07 12:03:29;;;;;;;60.90;21.02;;;3.20;99.90;;;;;;4992597;28;20054;-78
2023/12/07 12:05:56;;;;;;;50.92;20.15;;;3.20;99.90;;;;;;4992781;28;20113;-78
2023/12/07 12:08:22;;;;;;;133.43;28.45;;;3.20;99.90;;;;;;4993979;28;20030;-78
2023/12/07 12:10:57;;;;;;;202.95;38.60;;;3.30;99.90;;;;;;4991781;28;20077;-78
2023/12/07 12:13:30;;;;;;;150.65;30.98;;;3.30;99.90;;;;;;4993779;28;20027;-78
2023/12/07 12:15:59;;;;;;;51.67;20.75;;;3.30;99.90;;;;;;4993405;28;20509;-78
2023/12/07 12:18:26;;;;;;;104.85;26.00;;;3.30;99.90;;;;;;4991637;28;21064;-78
2023/12/07 12:20:52;;;;;;;173.50;35.25;;;3.40;99.90;;;;;;4992765;28;20041;-78
2023/12/07 12:23:18;;;;;;;54.20;23.73;;;3.30;99.90;;;;;;4993610;28;20022;-78
2023/12/07 12:25:44;;;;;;;70.10;24.15;;;3.30;99.90;;;;;;4990734;28;20383;-78
2023/12/07 12:28:10;;;;;;;79.13;25.27;;;3.30;99.90;;;;;;4993267;28;20026;-78
2023/12/07 12:30:36;;;;;;;75.78;26.88;;;3.30;99.90;;;;;;4991888;28;20586;-79
2023/12/07 12:33:02;;;;;;;54.90;23.52;;;3.40;99.90;;;;;;4989636;28;20493;-77